Time;durP1;ratioP1;P1;durP2;ratioP2;P2;SDS_P1;SDS_P2;PMS_P1;PMS_P2;Temp;Humidity;BMP_temperature;BMP_pressure;BME280_temperature;BME280_humidity;BME280_pressure;Samples;Min_cycle;Max_cycle;Signal;HPM_P1;HPM_P2
2020/12/29 00:01:40;;;;;;;2.13;1.03;;;3.20;99.90;;;;;;5035674;28;20423;-84
2020/12/29 00:04:10;;;;;;;1.27;1.17;;;2.80;99.90;;;;;;5034949;28;20422;-84
2020/12/29 00:06:50;;;;;;;1.87;1.77;;;3.10;99.90;;;;;;5034930;28;20428;-83
2020/12/29 00:09:17;;;;;;;1.00;1.00;;;2.60;99.90;;;;;;5035471;28;20514;-83
2020/12/29 00:11:43;;;;;;;2.20;1.57;;;3.00;99.90;;;;;;5036460;28;20434;-84
2020/12/29 00:14:10;;;;;;;1.30;1.20;;;2.50;99.90;;;;;;5035424;28;20419;-84
2020/12/29 00:16:36;;;;;;;1.23;1.23;;;2.40;99.90;;;;;;5034842;28;20415;-84
2020/12/29 00:19:02;;;;;;;1.50;1.40;;;2.50;99.90;;;;;;5035044;28;20752;-84
2020/12/29 00:21:29;;;;;;;1.20;1.10;;;2.30;99.90;;;;;;5035694;28;20451;-84
2020/12/29 00:23:55;;;;;;;1.10;1.00;;;2.60;99.90;;;;;;5035288;28;20521;-83
2020/12/29 00:26:25;;;;;;;1.33;1.23;;;2.20;99.90;;;;;;5034157;28;20838;-83
2020/12/29 00:28:51;;;;;;;1.70;1.60;;;2.50;99.90;;;;;;5034824;28;20176;-84
2020/12/29 00:31:18;;;;;;;1.20;1.10;;;2.60;99.90;;;;;;5034975;28;20427;-83
2020/12/29 00:33:44;;;;;;;1.00;1.00;;;2.50;99.90;;;;;;5034915;28;20180;-84
2020/12/29 00:36:09;;;;;;;3.10;1.87;;;2.20;99.90;;;;;;5034930;28;20484;-84
2020/12/29 00:38:35;;;;;;;2.20;1.57;;;2.30;99.90;;;;;;5034851;28;20311;-83
2020/12/29 00:41:05;;;;;;;2.00;1.90;;;2.60;99.90;;;;;;5035021;28;20219;-83
2020/12/29 00:43:31;;;;;;;1.67;1.57;;;2.50;99.90;;;;;;5035425;28;20180;-83
2020/12/29 00:45:56;;;;;;;1.67;1.57;;;2.20;99.90;;;;;;5035677;28;20418;-83
2020/12/29 00:48:22;;;;;;;1.30;1.20;;;2.10;99.90;;;;;;5034894;28;20203;-84
2020/12/29 00:50:47;;;;;;;1.97;1.87;;;2.10;99.90;;;;;;5034014;28;20195;-83
2020/12/29 00:53:13;;;;;;;1.83;1.73;;;2.60;99.90;;;;;;5034017;28;20287;-84
2020/12/29 00:55:41;;;;;;;2.53;2.33;;;2.50;99.90;;;;;;5033759;28;20651;-83
2020/12/29 00:58:07;;;;;;;1.80;1.70;;;2.30;99.90;;;;;;5034115;28;20180;-84
2020/12/29 01:00:33;;;;;;;2.10;1.90;;;2.50;99.90;;;;;;5033937;28;20544;-84
2020/12/29 01:02:58;;;;;;;2.00;1.77;;;2.10;99.90;;;;;;5034160;28;20423;-83
2020/12/29 01:05:24;;;;;;;2.03;1.93;;;2.60;99.90;;;;;;5033545;28;20212;-84
2020/12/29 01:07:49;;;;;;;1.90;1.80;;;2.20;99.90;;;;;;5033670;28;20173;-83
2020/12/29 01:10:15;;;;;;;2.40;2.20;;;2.70;99.90;;;;;;5033966;28;20181;-83
2020/12/29 01:12:40;;;;;;;2.00;1.33;;;2.70;99.90;;;;;;5033952;28;20212;-84
2020/12/29 01:15:06;;;;;;;1.57;1.47;;;2.70;99.90;;;;;;5033781;28;20188;-84
2020/12/29 01:17:32;;;;;;;0.77;0.77;;;2.60;99.90;;;;;;5034213;28;20180;-84
2020/12/29 01:19:57;;;;;;;1.80;1.70;;;2.20;99.90;;;;;;5033611;28;20227;-84
2020/12/29 01:22:23;;;;;;;2.70;2.50;;;2.50;99.90;;;;;;5034770;28;20176;-84
2020/12/29 01:24:48;;;;;;;1.70;1.60;;;2.30;99.90;;;;;;5033610;28;20239;-84
2020/12/29 01:27:14;;;;;;;1.47;1.37;;;2.20;99.90;;;;;;5034175;28;20231;-83
2020/12/29 01:29:40;;;;;;;2.43;1.93;;;2.50;99.90;;;;;;5034022;28;20176;-83
2020/12/29 01:32:05;;;;;;;1.93;1.83;;;2.50;99.90;;;;;;5034403;28;20176;-83
2020/12/29 01:34:31;;;;;;;2.43;2.30;;;2.40;99.90;;;;;;5037588;28;20176;-84
2020/12/29 01:36:59;;;;;;;2.37;2.03;;;2.50;99.90;;;;;;5034965;28;20192;-84
2020/12/29 01:39:25;;;;;;;3.37;1.90;;;2.40;99.90;;;;;;5034982;28;20212;-84
2020/12/29 01:41:50;;;;;;;3.43;2.30;;;2.40;99.90;;;;;;5034526;28;20514;-84
2020/12/29 01:44:20;;;;;;;3.60;1.57;;;2.20;99.90;;;;;;5035279;28;20188;-84
2020/12/29 01:46:49;;;;;;;5.47;3.00;;;1.70;99.90;;;;;;5034623;28;20180;-83
2020/12/29 01:49:17;;;;;;;2.73;2.53;;;1.90;99.90;;;;;;5034923;28;20451;-84
2020/12/29 01:51:43;;;;;;;2.37;2.17;;;2.10;99.90;;;;;;5033338;28;20481;-84
2020/12/29 01:54:09;;;;;;;2.93;2.70;;;1.60;99.90;;;;;;5033945;28;20423;-83
2020/12/29 01:56:40;;;;;;;2.27;2.10;;;2.00;99.90;;;;;;5033913;28;20431;-86
2020/12/29 01:59:09;;;;;;;2.37;2.17;;;1.90;99.90;;;;;;5034048;28;20204;-84
2020/12/29 02:01:39;;;;;;;2.30;2.10;;;1.80;99.90;;;;;;5034913;28;20449;-84
2020/12/29 02:04:06;;;;;;;2.80;2.60;;;1.90;99.90;;;;;;5035038;28;20418;-84
2020/12/29 02:06:37;;;;;;;3.57;3.03;;;2.00;99.90;;;;;;5037923;28;20442;-85
2020/12/29 02:09:04;;;;;;;2.60;2.40;;;2.00;99.90;;;;;;5034521;28;20419;-84
2020/12/29 02:11:30;;;;;;;3.03;2.80;;;2.10;99.90;;;;;;5033638;28;20420;-84
2020/12/29 02:13:56;;;;;;;2.77;2.57;;;2.00;99.90;;;;;;5033923;28;20428;-84
2020/12/29 02:16:22;;;;;;;3.00;2.80;;;1.50;99.90;;;;;;5033578;28;20180;-83
2020/12/29 02:18:48;;;;;;;2.20;2.00;;;1.50;99.90;;;;;;5033958;28;20196;-84
2020/12/29 02:21:13;;;;;;;2.30;2.20;;;2.00;99.90;;;;;;5033632;28;20893;-83
2020/12/29 02:23:39;;;;;;;3.03;2.73;;;1.70;99.90;;;;;;5034253;28;20188;-83
2020/12/29 02:26:05;;;;;;;2.73;2.50;;;2.10;99.90;;;;;;5036891;28;20179;-83
2020/12/29 02:28:31;;;;;;;2.93;2.30;;;2.00;99.90;;;;;;5037013;28;20179;-84
2020/12/29 02:30:56;;;;;;;3.20;2.90;;;1.60;99.90;;;;;;5036788;28;20198;-85
2020/12/29 02:33:22;;;;;;;2.73;2.53;;;1.50;99.90;;;;;;5037608;28;20188;-86
2020/12/29 02:35:47;;;;;;;3.23;2.77;;;1.70;99.90;;;;;;5037938;28;20185;-86
2020/12/29 02:38:13;;;;;;;3.00;2.70;;;1.80;99.90;;;;;;5039086;28;20207;-85
2020/12/29 02:40:39;;;;;;;3.80;2.87;;;1.90;99.90;;;;;;5041079;28;20706;-85
2020/12/29 02:43:04;;;;;;;2.90;2.70;;;2.20;99.90;;;;;;5042441;28;20183;-85
2020/12/29 02:45:30;;;;;;;3.20;2.63;;;1.90;99.90;;;;;;5040875;28;20187;-84
2020/12/29 02:47:56;;;;;;;2.37;2.17;;;2.30;99.90;;;;;;5042600;28;20184;-85
2020/12/29 02:50:21;;;;;;;6.40;4.07;;;2.10;99.90;;;;;;5045601;28;20587;-84
2020/12/29 02:52:47;;;;;;;3.10;2.80;;;2.30;99.90;;;;;;5040435;28;20203;-84
2020/12/29 02:55:13;;;;;;;2.93;2.63;;;2.10;99.90;;;;;;5057939;28;20623;-84
2020/12/29 02:57:38;;;;;;;3.23;2.47;;;2.40;99.90;;;;;;5041703;28;20179;-84
2020/12/29 03:00:07;;;;;;;3.67;2.00;;;2.10;99.90;;;;;;5043391;28;20614;-84
2020/12/29 03:02:32;;;;;;;2.37;2.17;;;1.90;99.90;;;;;;5040846;28;20176;-84
2020/12/29 03:05:01;;;;;;;2.57;2.37;;;2.40;99.90;;;;;;5039965;28;20429;-84
2020/12/29 03:07:27;;;;;;;2.07;1.90;;;2.40;99.90;;;;;;5039933;28;20168;-85
2020/12/29 03:09:53;;;;;;;2.90;1.77;;;2.00;99.90;;;;;;5039026;28;20423;-84
2020/12/29 03:12:19;;;;;;;1.67;1.57;;;2.50;99.90;;;;;;5039809;28;20914;-83
2020/12/29 03:14:44;;;;;;;2.13;2.00;;;2.10;99.90;;;;;;5040179;28;20243;-84
2020/12/29 03:17:10;;;;;;;1.10;1.10;;;2.00;99.90;;;;;;5042152;28;20168;-85
2020/12/29 03:19:35;;;;;;;1.20;1.10;;;2.20;99.90;;;;;;5042322;28;20199;-84
2020/12/29 03:22:01;;;;;;;1.70;1.60;;;2.50;99.90;;;;;;5040631;28;20172;-85
2020/12/29 03:24:27;;;;;;;1.53;1.13;;;2.50;99.90;;;;;;5040167;28;20219;-84
2020/12/29 03:26:52;;;;;;;2.00;1.23;;;2.30;99.90;;;;;;5040453;28;20180;-84
2020/12/29 03:29:18;;;;;;;1.90;1.80;;;2.10;99.90;;;;;;5041696;28;20241;-85
2020/12/29 03:31:44;;;;;;;1.73;1.63;;;2.40;99.90;;;;;;5041370;28;20176;-84
2020/12/29 03:34:16;;;;;;;1.13;1.13;;;2.20;99.90;;;;;;5041882;28;20183;-84
2020/12/29 03:36:42;;;;;;;1.20;1.20;;;1.90;99.90;;;;;;5041596;28;20422;-84
2020/12/29 03:39:08;;;;;;;2.07;1.97;;;1.90;99.90;;;;;;5041741;28;20852;-85
2020/12/29 03:41:33;;;;;;;1.37;1.20;;;2.00;99.90;;;;;;5040440;28;20176;-84
2020/12/29 03:43:59;;;;;;;1.10;1.10;;;2.50;99.90;;;;;;5040760;28;20234;-85
2020/12/29 03:46:25;;;;;;;1.07;0.97;;;2.10;99.90;;;;;;5041050;28;20179;-84
2020/12/29 03:48:50;;;;;;;1.33;1.23;;;2.00;99.90;;;;;;5040250;28;20203;-85
2020/12/29 03:51:16;;;;;;;1.10;1.10;;;2.00;99.90;;;;;;5038739;28;20465;-85
2020/12/29 03:53:42;;;;;;;1.67;1.40;;;2.10;99.90;;;;;;5039239;28;20199;-84
2020/12/29 03:56:07;;;;;;;1.33;1.13;;;2.50;99.90;;;;;;5038753;28;20176;-85
2020/12/29 03:58:33;;;;;;;0.93;0.77;;;2.20;99.90;;;;;;5039217;28;20180;-85
2020/12/29 04:00:58;;;;;;;1.10;0.93;;;2.50;99.90;;;;;;5039989;28;20215;-85
2020/12/29 04:03:24;;;;;;;0.80;0.80;;;2.20;99.90;;;;;;5040768;28;20179;-84
2020/12/29 04:05:49;;;;;;;0.67;0.67;;;2.20;99.90;;;;;;5057291;28;20175;-85
2020/12/29 04:08:15;;;;;;;0.40;0.40;;;2.50;99.90;;;;;;5039397;28;20183;-84
2020/12/29 04:10:41;;;;;;;1.03;0.70;;;2.50;99.90;;;;;;5039045;28;20202;-85
2020/12/29 04:13:06;;;;;;;1.90;0.40;;;2.50;99.90;;;;;;5041396;28;20176;-84
2020/12/29 04:15:32;;;;;;;0.60;0.60;;;2.50;99.90;;;;;;5041113;28;20598;-86
2020/12/29 04:17:57;;;;;;;0.43;0.43;;;2.50;99.90;;;;;;5038429;28;20191;-84
2020/12/29 04:20:23;;;;;;;1.30;0.50;;;2.20;99.90;;;;;;5038007;28;20220;-85
2020/12/29 04:22:49;;;;;;;0.77;0.40;;;2.70;99.90;;;;;;5038220;28;20272;-85
2020/12/29 04:25:14;;;;;;;0.70;0.43;;;2.30;99.90;;;;;;5039208;28;20231;-85
2020/12/29 04:27:41;;;;;;;0.40;0.30;;;2.70;99.90;;;;;;5040958;28;20182;-85
2020/12/29 04:30:08;;;;;;;0.50;0.40;;;2.50;99.90;;;;;;5056727;28;20535;-85
2020/12/29 04:32:34;;;;;;;0.70;0.70;;;2.70;99.90;;;;;;5038901;28;20422;-86
2020/12/29 04:35:00;;;;;;;7.40;0.50;;;2.70;99.90;;;;;;5039928;28;20430;-84
2020/12/29 04:37:25;;;;;;;1.77;0.40;;;2.70;99.90;;;;;;5039593;28;20176;-81
2020/12/29 04:39:51;;;;;;;0.30;0.30;;;2.80;99.90;;;;;;5039513;28;20533;-85
2020/12/29 04:42:19;;;;;;;0.80;0.30;;;2.70;99.90;;;;;;5039412;28;20426;-85
2020/12/29 04:44:45;;;;;;;2.20;0.50;;;2.50;99.90;;;;;;5039234;28;20414;-85
2020/12/29 04:47:12;;;;;;;0.40;0.40;;;2.50;99.90;;;;;;5039716;28;20797;-86
2020/12/29 04:49:38;;;;;;;0.30;0.20;;;2.40;99.90;;;;;;5059463;28;20178;-85
2020/12/29 04:52:06;;;;;;;0.97;0.40;;;2.40;99.90;;;;;;5039812;28;20434;-85
2020/12/29 04:54:34;;;;;;;0.60;0.60;;;2.40;99.90;;;;;;5041332;28;20832;-85
2020/12/29 04:57:01;;;;;;;1.20;0.87;;;2.60;99.90;;;;;;5040360;28;20423;-84
2020/12/29 04:59:28;;;;;;;0.70;0.53;;;2.40;99.90;;;;;;5038284;28;20469;-85
2020/12/29 05:01:54;;;;;;;0.67;0.50;;;2.50;99.90;;;;;;5040094;28;20443;-85
2020/12/29 05:04:22;;;;;;;0.37;0.37;;;2.80;99.90;;;;;;5038352;28;20433;-85
2020/12/29 05:06:48;;;;;;;1.77;0.40;;;2.80;99.90;;;;;;5039099;28;20176;-85
2020/12/29 05:09:16;;;;;;;1.40;0.37;;;2.90;99.90;;;;;;5038782;28;20482;-84
2020/12/29 05:11:41;;;;;;;0.60;0.37;;;2.50;99.90;;;;;;5037790;28;20418;-84
2020/12/29 05:14:07;;;;;;;0.20;0.20;;;2.60;99.90;;;;;;5040032;28;20493;-81
2020/12/29 05:16:36;;;;;;;1.80;0.30;;;2.60;99.90;;;;;;5038322;28;20229;-84
2020/12/29 05:19:08;;;;;;;0.20;0.10;;;2.70;99.90;;;;;;5037895;28;20219;-85
2020/12/29 05:21:36;;;;;;;0.77;0.40;;;3.00;99.90;;;;;;5039097;28;20469;-84
2020/12/29 05:24:21;;;;;;;1.03;0.50;;;3.00;99.90;;;;;;5040135;28;20458;-84
2020/12/29 05:26:51;;;;;;;2.93;0.57;;;3.00;99.90;;;;;;5039363;28;20427;-87
2020/12/29 05:29:17;;;;;;;0.43;0.43;;;3.00;99.90;;;;;;5039262;28;20476;-84
2020/12/29 05:31:46;;;;;;;0.40;0.30;;;3.00;99.90;;;;;;5037794;28;20458;-83
2020/12/29 05:34:20;;;;;;;0.40;0.40;;;3.00;99.90;;;;;;5037548;28;20602;-83
2020/12/29 05:36:46;;;;;;;0.20;0.20;;;3.00;99.90;;;;;;5038233;28;20410;-83
2020/12/29 05:39:12;;;;;;;1.67;0.40;;;3.10;99.90;;;;;;5038751;28;20957;-86
2020/12/29 05:41:46;;;;;;;0.70;0.50;;;2.70;99.90;;;;;;5037936;28;20949;-84
2020/12/29 05:44:26;;;;;;;1.50;0.40;;;3.10;99.90;;;;;;5037105;28;20424;-83
2020/12/29 05:46:52;;;;;;;0.60;0.30;;;3.00;99.90;;;;;;5055028;28;20513;-83
2020/12/29 05:49:19;;;;;;;3.80;0.77;;;3.10;99.90;;;;;;5039167;28;20498;-84
2020/12/29 05:51:53;;;;;;;0.37;0.37;;;2.80;99.90;;;;;;5040249;28;20415;-85
2020/12/29 05:54:19;;;;;;;0.40;0.30;;;3.10;99.90;;;;;;5054995;28;20941;-84
2020/12/29 05:56:46;;;;;;;1.40;0.73;;;2.90;99.90;;;;;;5037994;28;20419;-83
2020/12/29 05:59:13;;;;;;;0.63;0.40;;;2.70;99.90;;;;;;5037808;28;21170;-84
2020/12/29 06:01:41;;;;;;;0.53;0.47;;;2.80;99.90;;;;;;5038326;28;20423;-84
2020/12/29 06:04:08;;;;;;;0.40;0.40;;;2.80;99.90;;;;;;5037327;28;20448;-84
2020/12/29 06:06:36;;;;;;;0.30;0.30;;;3.10;99.90;;;;;;5038949;28;20782;-83
2020/12/29 06:09:06;;;;;;;0.50;0.30;;;3.10;99.90;;;;;;5037588;28;20940;-82
2020/12/29 06:11:53;;;;;;;0.30;0.23;;;3.10;99.90;;;;;;5037439;28;20789;-83
2020/12/29 06:14:23;;;;;;;0.60;0.30;;;2.80;99.90;;;;;;5038651;28;20524;-83
2020/12/29 06:16:49;;;;;;;1.03;0.50;;;3.10;99.90;;;;;;5041873;28;20422;-85
2020/12/29 06:19:20;;;;;;;1.17;0.27;;;2.80;99.90;;;;;;5041767;28;20973;-84
2020/12/29 06:22:05;;;;;;;0.97;0.30;;;2.70;99.90;;;;;;5041667;28;20188;-82
2020/12/29 06:24:33;;;;;;;1.13;0.47;;;3.10;99.90;;;;;;5040728;28;20465;-84
2020/12/29 06:27:01;;;;;;;0.63;0.60;;;2.90;99.90;;;;;;5039962;28;20415;-84
2020/12/29 06:29:32;;;;;;;0.63;0.50;;;2.90;99.90;;;;;;5039838;28;20445;-85
2020/12/29 06:32:02;;;;;;;0.57;0.57;;;3.20;99.90;;;;;;5040307;28;20426;-85
2020/12/29 06:34:31;;;;;;;0.67;0.67;;;3.20;99.90;;;;;;5040564;28;20956;-83
2020/12/29 06:37:16;;;;;;;0.40;0.40;;;3.10;99.90;;;;;;5042204;28;20440;-83
2020/12/29 06:39:46;;;;;;;0.50;0.40;;;3.20;99.90;;;;;;5042057;28;20450;-83
2020/12/29 06:42:13;;;;;;;1.63;0.60;;;3.20;99.90;;;;;;5041584;28;20971;-84
2020/12/29 06:44:39;;;;;;;1.30;0.50;;;3.20;99.90;;;;;;5040402;28;20414;-83
2020/12/29 06:47:09;;;;;;;4.00;0.83;;;3.20;99.90;;;;;;5058876;28;20944;-83
2020/12/29 06:49:43;;;;;;;0.57;0.37;;;3.30;99.90;;;;;;5053134;28;20936;-84
2020/12/29 06:52:23;;;;;;;0.67;0.60;;;3.30;99.90;;;;;;5039035;28;20426;-82
2020/12/29 06:54:53;;;;;;;0.40;0.40;;;3.00;99.90;;;;;;5040050;28;20944;-83
2020/12/29 06:57:25;;;;;;;2.23;1.70;;;3.30;99.90;;;;;;5039266;28;20457;-84
2020/12/29 06:59:50;;;;;;;1.57;1.43;;;3.30;99.90;;;;;;5039591;28;20470;-83
2020/12/29 07:02:21;;;;;;;1.27;1.17;;;3.30;99.90;;;;;;5038549;28;20954;-85
2020/12/29 07:04:56;;;;;;;2.20;2.00;;;3.30;99.90;;;;;;5037705;28;20215;-84
2020/12/29 07:07:34;;;;;;;1.80;1.70;;;2.80;99.90;;;;;;5018567;28;20427;-84
2020/12/29 07:10:10;;;;;;;1.00;1.00;;;3.10;99.90;;;;;;5020170;28;20462;-84
2020/12/29 07:12:35;;;;;;;0.87;0.80;;;3.00;99.90;;;;;;5022736;28;20429;-83
2020/12/29 07:15:04;;;;;;;0.60;0.60;;;2.50;99.90;;;;;;5025862;28;20522;-84
2020/12/29 07:17:31;;;;;;;1.07;0.97;;;2.30;99.90;;;;;;5036950;28;20179;-84
2020/12/29 07:19:56;;;;;;;2.00;0.80;;;2.40;99.90;;;;;;5054368;28;20466;-83
2020/12/29 07:22:24;;;;;;;1.23;1.03;;;2.10;99.90;;;;;;5037195;28;20767;-83
2020/12/29 07:24:50;;;;;;;3.30;1.70;;;2.70;99.90;;;;;;5036713;28;20232;-84
2020/12/29 07:27:20;;;;;;;1.50;1.10;;;2.20;99.90;;;;;;5053617;28;20944;-84
2020/12/29 07:30:01;;;;;;;0.97;0.70;;;2.20;99.90;;;;;;5054816;28;20430;-82
2020/12/29 07:32:27;;;;;;;3.00;1.60;;;2.70;99.90;;;;;;5037338;28;20517;-82
2020/12/29 07:34:53;;;;;;;1.10;1.00;;;2.20;99.90;;;;;;5055787;28;20814;-84
2020/12/29 07:37:20;;;;;;;1.37;1.27;;;2.60;99.90;;;;;;5038254;28;20465;-84
2020/12/29 07:39:46;;;;;;;1.20;1.10;;;2.50;99.90;;;;;;5037631;28;20245;-83
2020/12/29 07:42:13;;;;;;;0.90;0.90;;;2.20;99.90;;;;;;5039295;28;20430;-83
2020/12/29 07:44:39;;;;;;;0.63;0.40;;;2.30;99.90;;;;;;5043274;28;20203;-84
2020/12/29 07:47:05;;;;;;;0.30;0.20;;;2.40;99.90;;;;;;5037720;28;20418;-83
2020/12/29 07:49:31;;;;;;;0.50;0.43;;;2.40;99.90;;;;;;5037873;28;20976;-83
2020/12/29 07:51:56;;;;;;;0.60;0.43;;;1.90;99.90;;;;;;5037978;28;20172;-84
2020/12/29 07:54:22;;;;;;;1.70;0.70;;;2.10;99.90;;;;;;5037269;28;20192;-83
2020/12/29 07:56:47;;;;;;;0.50;0.50;;;2.40;99.90;;;;;;5037514;28;20176;-84
2020/12/29 07:59:13;;;;;;;0.37;0.30;;;2.10;99.90;;;;;;5037304;28;20231;-83
2020/12/29 08:02:08;;;;;;;0.90;0.80;;;2.00;99.90;;;;;;5036928;28;20211;-83
2020/12/29 08:04:34;;;;;;;0.50;0.43;;;2.10;99.90;;;;;;5035290;28;20642;-84
2020/12/29 08:07:07;;;;;;;1.10;1.00;;;2.00;99.90;;;;;;5038358;28;20415;-83
2020/12/29 08:09:51;;;;;;;1.13;0.90;;;2.00;99.90;;;;;;5037850;28;20176;-84
2020/12/29 08:12:17;;;;;;;1.10;1.10;;;2.50;99.90;;;;;;5037668;28;20423;-83
2020/12/29 08:14:46;;;;;;;2.07;1.60;;;2.20;99.90;;;;;;5037147;28;20434;-84
2020/12/29 08:17:12;;;;;;;1.87;1.33;;;2.50;99.90;;;;;;5036881;28;20461;-86
2020/12/29 08:19:38;;;;;;;1.07;1.07;;;2.50;99.90;;;;;;5037188;28;20525;-84
2020/12/29 08:22:08;;;;;;;4.73;4.33;;;2.50;99.90;;;;;;5036750;28;20512;-81
2020/12/29 08:24:34;;;;;;;5.17;3.47;;;2.30;99.90;;;;;;5037256;28;20223;-82
2020/12/29 08:27:00;;;;;;;2.30;2.10;;;2.10;99.90;;;;;;5055157;28;20425;-83
2020/12/29 08:29:27;;;;;;;1.00;1.00;;;2.50;99.90;;;;;;5036888;28;20278;-83
2020/12/29 08:32:04;;;;;;;1.37;1.00;;;2.50;99.90;;;;;;5036984;28;20176;-84
2020/12/29 08:34:32;;;;;;;0.73;0.73;;;2.10;99.90;;;;;;5053319;28;20430;-83
2020/12/29 08:37:01;;;;;;;0.70;0.70;;;2.20;99.90;;;;;;5036834;28;20422;-83
2020/12/29 08:40:06;;;;;;;0.80;0.80;;;2.70;99.90;;;;;;5036529;28;20469;-83
2020/12/29 08:42:33;;;;;;;0.63;0.60;;;2.70;99.90;;;;;;5037175;28;20427;-83
2020/12/29 08:45:00;;;;;;;0.70;0.63;;;2.80;99.90;;;;;;5036889;28;20418;-84
2020/12/29 08:47:32;;;;;;;1.10;0.60;;;2.90;99.90;;;;;;5036821;28;20418;-84
2020/12/29 08:49:59;;;;;;;1.77;0.47;;;3.00;99.90;;;;;;5036597;28;20414;-83
2020/12/29 08:52:31;;;;;;;0.53;0.50;;;2.50;99.90;;;;;;5036991;28;20480;-83
2020/12/29 08:54:57;;;;;;;0.50;0.50;;;2.50;99.90;;;;;;5036784;28;20417;-82
2020/12/29 08:57:26;;;;;;;0.30;0.30;;;2.70;99.90;;;;;;5054092;28;20423;-81
2020/12/29 08:59:52;;;;;;;0.60;0.43;;;3.00;99.90;;;;;;5038656;28;20474;-83
2020/12/29 09:02:28;;;;;;;0.60;0.60;;;2.70;99.90;;;;;;5036745;28;20430;-82
2020/12/29 09:04:59;;;;;;;1.17;0.50;;;3.20;99.90;;;;;;5036720;28;20418;-83
2020/12/29 09:07:28;;;;;;;1.10;0.80;;;3.20;99.90;;;;;;5037278;28;20418;-83
2020/12/29 09:09:53;;;;;;;0.50;0.50;;;3.30;99.90;;;;;;5036269;28;20418;-83
2020/12/29 09:12:20;;;;;;;4.50;1.10;;;3.00;99.90;;;;;;5052539;28;20423;-82
2020/12/29 09:14:57;;;;;;;1.83;1.33;;;3.30;99.90;;;;;;5054667;28;20199;-83
2020/12/29 09:17:26;;;;;;;1.53;1.07;;;3.00;99.90;;;;;;5037301;28;20859;-82
2020/12/29 09:20:30;;;;;;;0.80;0.80;;;3.50;99.90;;;;;;5035644;28;20478;-81
2020/12/29 09:23:00;;;;;;;2.43;1.77;;;3.50;99.90;;;;;;5054366;28;20417;-82
2020/12/29 09:25:34;;;;;;;1.23;0.80;;;3.60;99.90;;;;;;5052839;28;20473;-82
2020/12/29 09:28:11;;;;;;;1.93;1.10;;;3.80;99.90;;;;;;5036101;28;20446;-83
2020/12/29 09:30:38;;;;;;;1.90;1.80;;;3.60;99.90;;;;;;5053947;28;20505;-83
2020/12/29 09:33:04;;;;;;;2.67;2.47;;;3.70;99.90;;;;;;5035770;28;20948;-83
2020/12/29 09:35:31;;;;;;;2.70;2.50;;;3.50;99.90;;;;;;5036219;28;20411;-83
2020/12/29 09:37:59;;;;;;;1.50;1.40;;;3.70;99.90;;;;;;5036281;28;20418;-84
2020/12/29 09:40:26;;;;;;;0.70;0.70;;;3.70;99.90;;;;;;5035529;28;20877;-82
2020/12/29 09:42:52;;;;;;;0.80;0.80;;;3.70;99.90;;;;;;5035970;28;20414;-84
2020/12/29 09:45:22;;;;;;;5.83;5.23;;;3.80;99.90;;;;;;5036582;28;20422;-83
2020/12/29 09:47:48;;;;;;;2.00;1.90;;;3.80;99.90;;;;;;5037822;28;20218;-83
2020/12/29 09:50:14;;;;;;;2.23;1.10;;;3.80;99.90;;;;;;5038330;28;20427;-76
2020/12/29 09:52:40;;;;;;;0.60;0.60;;;3.80;99.90;;;;;;5057932;28;20743;-84
2020/12/29 09:55:06;;;;;;;0.60;0.60;;;3.70;99.90;;;;;;5040063;28;20425;-84
2020/12/29 09:57:32;;;;;;;0.87;0.87;;;3.80;99.90;;;;;;5058532;28;20237;-83
2020/12/29 09:59:58;;;;;;;0.50;0.50;;;3.50;99.90;;;;;;5057832;28;20457;-85
2020/12/29 10:02:24;;;;;;;1.50;1.30;;;3.20;99.90;;;;;;5039720;28;20917;-82
2020/12/29 10:04:50;;;;;;;3.23;2.07;;;3.20;99.90;;;;;;5040498;28;20187;-84
2020/12/29 10:07:15;;;;;;;1.07;0.60;;;3.50;99.90;;;;;;5039756;28;20188;-83
2020/12/29 10:09:41;;;;;;;1.10;0.90;;;3.70;99.90;;;;;;5039571;28;20179;-84
2020/12/29 10:12:07;;;;;;;1.57;1.30;;;3.50;99.90;;;;;;5040111;28;20176;-81
2020/12/29 10:14:32;;;;;;;2.43;2.30;;;3.60;99.90;;;;;;5040101;28;20186;-84
2020/12/29 10:16:58;;;;;;;1.30;1.20;;;3.60;99.90;;;;;;5039474;28;20631;-82
2020/12/29 10:19:23;;;;;;;10.00;7.13;;;3.40;99.90;;;;;;5039810;28;20215;-81
2020/12/29 10:21:53;;;;;;;2.47;2.27;;;3.40;99.90;;;;;;5039071;28;20176;-82
2020/12/29 10:24:19;;;;;;;33.33;25.20;;;3.70;99.90;;;;;;5038921;28;20220;-83
2020/12/29 10:26:48;;;;;;;2.70;2.20;;;3.30;99.90;;;;;;5039231;28;20513;-82
2020/12/29 10:29:13;;;;;;;5.53;4.50;;;3.40;99.90;;;;;;5039220;28;20175;-83
2020/12/29 10:31:39;;;;;;;2.20;2.00;;;3.80;99.90;;;;;;5038585;28;20645;-83
2020/12/29 10:34:04;;;;;;;11.70;10.67;;;3.70;99.90;;;;;;5038802;28;20168;-83
2020/12/29 10:36:34;;;;;;;2.90;2.63;;;3.60;99.90;;;;;;5038628;28;20258;-84
2020/12/29 10:39:00;;;;;;;1.50;1.40;;;4.20;99.90;;;;;;5038660;28;20356;-82
2020/12/29 10:41:29;;;;;;;2.30;2.10;;;4.40;99.90;;;;;;5038774;28;20438;-82
2020/12/29 10:43:55;;;;;;;2.57;2.37;;;4.70;99.90;;;;;;5056584;28;20442;-84
2020/12/29 10:46:22;;;;;;;1.83;1.10;;;4.80;99.90;;;;;;5039071;28;20422;-83
2020/12/29 10:48:47;;;;;;;2.93;2.70;;;4.90;99.90;;;;;;5038872;28;20755;-82
2020/12/29 10:51:24;;;;;;;1.00;1.00;;;4.80;99.90;;;;;;5039037;28;20488;-83
2020/12/29 10:53:50;;;;;;;2.90;2.70;;;4.80;99.90;;;;;;5038777;28;20176;-83
2020/12/29 10:56:17;;;;;;;1.80;1.30;;;4.80;99.90;;;;;;5038523;28;20498;-83
2020/12/29 10:58:42;;;;;;;1.03;1.03;;;4.90;99.90;;;;;;5056250;28;20411;-83
2020/12/29 11:01:10;;;;;;;1.27;0.90;;;4.60;99.90;;;;;;5036713;28;20586;-81
2020/12/29 11:03:35;;;;;;;1.40;1.00;;;4.70;99.90;;;;;;5056122;28;20176;-84
2020/12/29 11:06:01;;;;;;;4.13;3.73;;;4.50;99.90;;;;;;5038029;28;20552;-83
2020/12/29 11:08:27;;;;;;;4.43;4.03;;;4.10;99.90;;;;;;5038345;28;20176;-82
2020/12/29 11:10:53;;;;;;;12.87;8.97;;;4.50;99.90;;;;;;5037967;28;20585;-81
2020/12/29 11:13:19;;;;;;;5.90;5.40;;;4.50;99.90;;;;;;5056310;28;20425;-82
2020/12/29 11:15:47;;;;;;;0.80;0.80;;;4.10;99.90;;;;;;5038353;28;20422;-83
2020/12/29 11:18:13;;;;;;;0.60;0.60;;;4.60;99.90;;;;;;5038216;28;20448;-82
2020/12/29 11:20:39;;;;;;;1.30;1.20;;;4.60;99.90;;;;;;5038113;28;20470;-84
2020/12/29 11:23:05;;;;;;;4.87;3.37;;;4.70;99.90;;;;;;5037903;28;20414;-79
2020/12/29 11:25:30;;;;;;;2.13;1.10;;;4.70;99.90;;;;;;5037871;28;20227;-83
2020/12/29 11:27:56;;;;;;;4.00;2.90;;;4.70;99.90;;;;;;5039142;28;20183;-83
2020/12/29 11:30:22;;;;;;;9.20;8.23;;;4.70;99.90;;;;;;5056018;28;20186;-82
2020/12/29 11:32:47;;;;;;;5.67;5.27;;;4.80;99.90;;;;;;5038565;28;20179;-83
2020/12/29 11:35:13;;;;;;;2.60;2.20;;;4.90;99.90;;;;;;5037489;28;20266;-83
2020/12/29 11:37:38;;;;;;;3.60;3.23;;;5.00;99.90;;;;;;5055301;28;20164;-83
2020/12/29 11:40:04;;;;;;;1.30;1.17;;;5.10;99.90;;;;;;5037813;28;20248;-84
2020/12/29 11:42:29;;;;;;;4.13;3.73;;;5.10;99.90;;;;;;5055576;28;20172;-84
2020/12/29 11:44:55;;;;;;;3.10;2.30;;;5.00;99.90;;;;;;5037341;28;20321;-83
2020/12/29 11:47:20;;;;;;;3.50;2.60;;;4.50;99.90;;;;;;5037523;28;20591;-83
2020/12/29 11:49:46;;;;;;;1.03;0.80;;;4.90;99.90;;;;;;5037261;28;20610;-83
2020/12/29 11:52:11;;;;;;;2.23;0.60;;;4.90;99.90;;;;;;5037546;28;20180;-86
2020/12/29 11:54:37;;;;;;;0.73;0.50;;;4.70;99.90;;;;;;5037841;28;20180;-83
2020/12/29 11:57:03;;;;;;;1.07;1.07;;;4.90;99.90;;;;;;5036931;28;20195;-84
2020/12/29 11:59:29;;;;;;;3.47;1.73;;;4.70;99.90;;;;;;5037216;28;20239;-83
2020/12/29 12:01:57;;;;;;;1.90;1.70;;;4.80;99.90;;;;;;5037259;28;20589;-83
2020/12/29 12:04:22;;;;;;;0.67;0.67;;;4.80;99.90;;;;;;5036976;28;20266;-84
2020/12/29 12:06:48;;;;;;;1.70;1.60;;;4.80;99.90;;;;;;5037583;28;20526;-83
2020/12/29 12:09:15;;;;;;;1.10;1.10;;;4.70;99.90;;;;;;5037302;28;20176;-84
2020/12/29 12:11:41;;;;;;;1.03;0.70;;;4.90;99.90;;;;;;5036892;28;20462;-83
2020/12/29 12:14:07;;;;;;;3.03;1.83;;;4.90;99.90;;;;;;5036680;28;20940;-84
2020/12/29 12:16:39;;;;;;;0.90;0.90;;;4.90;99.90;;;;;;5036787;28;20176;-83
2020/12/29 12:19:07;;;;;;;1.37;1.27;;;4.70;99.90;;;;;;5036768;28;20176;-84
2020/12/29 12:21:34;;;;;;;0.97;0.97;;;5.10;99.90;;;;;;5036389;28;20434;-84
2020/12/29 12:24:00;;;;;;;0.77;0.77;;;5.00;99.90;;;;;;5038092;28;20470;-84
2020/12/29 12:26:27;;;;;;;1.37;1.27;;;5.10;99.90;;;;;;5036789;28;20430;-80
2020/12/29 12:28:53;;;;;;;1.37;0.90;;;5.10;99.90;;;;;;5036624;28;20423;-83
2020/12/29 12:31:19;;;;;;;1.03;0.70;;;5.10;99.90;;;;;;5037265;28;20422;-84
2020/12/29 12:33:45;;;;;;;0.80;0.80;;;5.20;99.90;;;;;;5036603;28;20180;-84
2020/12/29 12:36:12;;;;;;;0.73;0.60;;;5.10;99.90;;;;;;5036273;28;20426;-83
2020/12/29 12:38:40;;;;;;;1.93;1.83;;;4.90;99.90;;;;;;5036475;28;20183;-84
2020/12/29 12:41:07;;;;;;;2.70;1.87;;;4.60;99.90;;;;;;5036048;28;20473;-84
2020/12/29 12:43:34;;;;;;;2.40;2.20;;;4.80;99.90;;;;;;5036637;28;20454;-83
2020/12/29 12:46:00;;;;;;;2.07;1.30;;;4.90;99.90;;;;;;5036821;28;20430;-84
2020/12/29 12:48:26;;;;;;;1.87;1.10;;;5.20;99.90;;;;;;5036779;28;20509;-84
2020/12/29 12:50:51;;;;;;;2.07;1.40;;;5.20;99.90;;;;;;5036658;28;20466;-83
2020/12/29 12:53:17;;;;;;;1.27;1.17;;;5.20;99.90;;;;;;5052666;28;20686;-84
2020/12/29 12:55:43;;;;;;;2.47;1.50;;;5.20;99.90;;;;;;5052927;28;20218;-83
2020/12/29 12:58:09;;;;;;;1.13;1.03;;;5.20;99.90;;;;;;5054290;28;20415;-84
2020/12/29 13:00:34;;;;;;;2.27;2.07;;;5.30;99.90;;;;;;5036259;28;20249;-84